sensor_id;sensor_type;location;lat;lon;timestamp;P1;durP1;ratioP1;P2;durP2;ratioP2
239;SDS011;104;53.590;10.004;2022-12-17T00:01:45;85.43;;;27.50;;
239;SDS011;104;53.590;10.004;2022-12-17T00:04:30;88.67;;;30.90;;
239;SDS011;104;53.590;10.004;2022-12-17T00:07:17;78.50;;;28.63;;
239;SDS011;104;53.590;10.004;2022-12-17T00:10:02;77.80;;;24.33;;
239;SDS011;104;53.590;10.004;2022-12-17T00:12:47;80.50;;;28.33;;
239;SDS011;104;53.590;10.004;2022-12-17T00:15:32;84.53;;;27.73;;
239;SDS011;104;53.590;10.004;2022-12-17T00:18:21;71.60;;;25.40;;
239;SDS011;104;53.590;10.004;2022-12-17T00:21:07;73.20;;;24.23;;
239;SDS011;104;53.590;10.004;2022-12-17T00:23:52;74.83;;;25.53;;
239;SDS011;104;53.590;10.004;2022-12-17T00:26:37;88.37;;;27.40;;
239;SDS011;104;53.590;10.004;2022-12-17T00:29:22;80.37;;;26.13;;
239;SDS011;104;53.590;10.004;2022-12-17T00:32:19;76.97;;;26.30;;
239;SDS011;104;53.590;10.004;2022-12-17T00:35:05;85.27;;;28.10;;
239;SDS011;104;53.590;10.004;2022-12-17T00:37:50;79.67;;;25.57;;
239;SDS011;104;53.590;10.004;2022-12-17T00:40:35;76.70;;;27.70;;
239;SDS011;104;53.590;10.004;2022-12-17T00:43:20;86.10;;;27.57;;
239;SDS011;104;53.590;10.004;2022-12-17T00:46:06;60.70;;;20.70;;
239;SDS011;104;53.590;10.004;2022-12-17T00:48:51;79.47;;;27.67;;
239;SDS011;104;53.590;10.004;2022-12-17T00:51:37;88.30;;;29.97;;
239;SDS011;104;53.590;10.004;2022-12-17T00:54:22;75.43;;;26.43;;
239;SDS011;104;53.590;10.004;2022-12-17T00:57:06;77.80;;;26.43;;
239;SDS011;104;53.590;10.004;2022-12-17T00:59:51;88.47;;;28.70;;
239;SDS011;104;53.590;10.004;2022-12-17T01:02:36;65.13;;;24.67;;
239;SDS011;104;53.590;10.004;2022-12-17T01:05:21;75.97;;;27.03;;
239;SDS011;104;53.590;10.004;2022-12-17T01:08:11;83.93;;;27.47;;
239;SDS011;104;53.590;10.004;2022-12-17T01:11:00;80.33;;;28.63;;
239;SDS011;104;53.590;10.004;2022-12-17T01:13:45;85.33;;;30.27;;
239;SDS011;104;53.590;10.004;2022-12-17T01:16:33;81.37;;;27.93;;
239;SDS011;104;53.590;10.004;2022-12-17T01:19:18;78.57;;;27.73;;
239;SDS011;104;53.590;10.004;2022-12-17T01:22:03;81.03;;;28.03;;
239;SDS011;104;53.590;10.004;2022-12-17T01:24:49;72.20;;;25.40;;
239;SDS011;104;53.590;10.004;2022-12-17T01:27:34;70.30;;;25.77;;
239;SDS011;104;53.590;10.004;2022-12-17T01:30:19;75.83;;;26.47;;
239;SDS011;104;53.590;10.004;2022-12-17T01:33:05;73.70;;;25.27;;
239;SDS011;104;53.590;10.004;2022-12-17T01:35:53;81.37;;;27.57;;
239;SDS011;104;53.590;10.004;2022-12-17T01:38:38;77.90;;;28.00;;
239;SDS011;104;53.590;10.004;2022-12-17T01:41:24;80.17;;;26.40;;
239;SDS011;104;53.590;10.004;2022-12-17T01:47:29;81.70;;;28.77;;
239;SDS011;104;53.590;10.004;2022-12-17T01:50:15;77.60;;;28.60;;
239;SDS011;104;53.590;10.004;2022-12-17T01:53:01;77.33;;;27.53;;
239;SDS011;104;53.590;10.004;2022-12-17T01:55:47;84.37;;;27.20;;
239;SDS011;104;53.590;10.004;2022-12-17T01:58:34;71.20;;;28.27;;
239;SDS011;104;53.590;10.004;2022-12-17T02:01:19;85.00;;;28.33;;
239;SDS011;104;53.590;10.004;2022-12-17T02:04:04;61.77;;;21.43;;
239;SDS011;104;53.590;10.004;2022-12-17T02:06:51;81.07;;;28.67;;
239;SDS011;104;53.590;10.004;2022-12-17T02:09:45;62.97;;;23.13;;
239;SDS011;104;53.590;10.004;2022-12-17T02:12:39;86.80;;;27.10;;
239;SDS011;104;53.590;10.004;2022-12-17T02:15:30;80.17;;;28.50;;
239;SDS011;104;53.590;10.004;2022-12-17T02:18:24;81.43;;;26.87;;
239;SDS011;104;53.590;10.004;2022-12-17T02:21:10;74.70;;;27.70;;
239;SDS011;104;53.590;10.004;2022-12-17T02:23:59;64.13;;;22.50;;
239;SDS011;104;53.590;10.004;2022-12-17T02:26:48;69.17;;;23.60;;
239;SDS011;104;53.590;10.004;2022-12-17T02:29:36;67.53;;;23.47;;
239;SDS011;104;53.590;10.004;2022-12-17T02:32:21;74.63;;;24.67;;
239;SDS011;104;53.590;10.004;2022-12-17T02:35:09;74.77;;;24.27;;
239;SDS011;104;53.590;10.004;2022-12-17T02:37:57;72.73;;;26.20;;
239;SDS011;104;53.590;10.004;2022-12-17T02:40:42;86.20;;;26.97;;
239;SDS011;104;53.590;10.004;2022-12-17T02:43:30;70.83;;;24.47;;
239;SDS011;104;53.590;10.004;2022-12-17T02:46:17;68.53;;;24.70;;
239;SDS011;104;53.590;10.004;2022-12-17T02:49:02;72.60;;;25.67;;
239;SDS011;104;53.590;10.004;2022-12-17T02:51:47;71.60;;;24.47;;
239;SDS011;104;53.590;10.004;2022-12-17T02:54:32;74.20;;;26.60;;
239;SDS011;104;53.590;10.004;2022-12-17T02:57:17;76.40;;;25.03;;
239;SDS011;104;53.590;10.004;2022-12-17T03:00:04;71.40;;;25.13;;
239;SDS011;104;53.590;10.004;2022-12-17T03:02:50;72.47;;;23.97;;
239;SDS011;104;53.590;10.004;2022-12-17T03:05:34;74.50;;;24.47;;
239;SDS011;104;53.590;10.004;2022-12-17T03:08:19;86.37;;;27.00;;
239;SDS011;104;53.590;10.004;2022-12-17T03:11:03;75.77;;;24.40;;
239;SDS011;104;53.590;10.004;2022-12-17T03:13:48;72.47;;;25.77;;
239;SDS011;104;53.590;10.004;2022-12-17T03:16:46;66.40;;;22.47;;
239;SDS011;104;53.590;10.004;2022-12-17T03:19:33;80.87;;;25.30;;
239;SDS011;104;53.590;10.004;2022-12-17T03:22:18;70.17;;;24.17;;
239;SDS011;104;53.590;10.004;2022-12-17T03:25:03;72.30;;;25.43;;
239;SDS011;104;53.590;10.004;2022-12-17T03:27:49;60.97;;;20.17;;
239;SDS011;104;53.590;10.004;2022-12-17T03:30:39;85.63;;;25.33;;
239;SDS011;104;53.590;10.004;2022-12-17T03:33:26;65.93;;;20.60;;
239;SDS011;104;53.590;10.004;2022-12-17T03:36:11;74.00;;;24.17;;
239;SDS011;104;53.590;10.004;2022-12-17T03:38:56;65.73;;;23.50;;
239;SDS011;104;53.590;10.004;2022-12-17T03:41:43;78.37;;;24.17;;
239;SDS011;104;53.590;10.004;2022-12-17T03:44:31;67.33;;;23.43;;
239;SDS011;104;53.590;10.004;2022-12-17T03:47:16;78.50;;;25.20;;
239;SDS011;104;53.590;10.004;2022-12-17T03:50:14;72.17;;;21.27;;
239;SDS011;104;53.590;10.004;2022-12-17T03:53:01;64.77;;;23.60;;
239;SDS011;104;53.590;10.004;2022-12-17T03:55:55;76.03;;;25.10;;
239;SDS011;104;53.590;10.004;2022-12-17T03:58:40;62.93;;;20.00;;
239;SDS011;104;53.590;10.004;2022-12-17T04:01:25;64.03;;;22.63;;
239;SDS011;104;53.590;10.004;2022-12-17T04:04:10;72.23;;;24.77;;
239;SDS011;104;53.590;10.004;2022-12-17T04:06:59;63.43;;;21.80;;
239;SDS011;104;53.590;10.004;2022-12-17T04:09:52;71.93;;;23.17;;
239;SDS011;104;53.590;10.004;2022-12-17T04:12:37;78.33;;;24.07;;
239;SDS011;104;53.590;10.004;2022-12-17T04:15:25;67.03;;;21.53;;
239;SDS011;104;53.590;10.004;2022-12-17T04:18:10;71.37;;;23.53;;
239;SDS011;104;53.590;10.004;2022-12-17T04:21:09;62.83;;;22.10;;
239;SDS011;104;53.590;10.004;2022-12-17T04:24:02;66.43;;;24.00;;
239;SDS011;104;53.590;10.004;2022-12-17T04:29:59;70.83;;;24.37;;
239;SDS011;104;53.590;10.004;2022-12-17T04:32:46;67.13;;;23.77;;
239;SDS011;104;53.590;10.004;2022-12-17T04:35:31;73.00;;;23.13;;
239;SDS011;104;53.590;10.004;2022-12-17T04:38:16;64.77;;;22.17;;
239;SDS011;104;53.590;10.004;2022-12-17T04:44:04;59.83;;;21.30;;
239;SDS011;104;53.590;10.004;2022-12-17T04:46:49;52.27;;;16.90;;
239;SDS011;104;53.590;10.004;2022-12-17T04:49:34;64.23;;;19.67;;
239;SDS011;104;53.590;10.004;2022-12-17T04:52:18;65.07;;;22.47;;
239;SDS011;104;53.590;10.004;2022-12-17T04:55:03;68.73;;;24.03;;
239;SDS011;104;53.590;10.004;2022-12-17T04:57:51;72.93;;;21.90;;
239;SDS011;104;53.590;10.004;2022-12-17T05:00:38;58.47;;;21.27;;
239;SDS011;104;53.590;10.004;2022-12-17T05:03:23;59.73;;;21.00;;
239;SDS011;104;53.590;10.004;2022-12-17T05:06:09;60.40;;;20.47;;
239;SDS011;104;53.590;10.004;2022-12-17T05:08:55;64.70;;;22.80;;
239;SDS011;104;53.590;10.004;2022-12-17T05:11:45;64.53;;;21.73;;
239;SDS011;104;53.590;10.004;2022-12-17T05:17:47;71.23;;;24.00;;
239;SDS011;104;53.590;10.004;2022-12-17T05:20:32;61.50;;;23.03;;
239;SDS011;104;53.590;10.004;2022-12-17T05:23:20;62.03;;;22.23;;
239;SDS011;104;53.590;10.004;2022-12-17T05:26:05;61.87;;;21.17;;
239;SDS011;104;53.590;10.004;2022-12-17T05:28:55;78.80;;;23.13;;
239;SDS011;104;53.590;10.004;2022-12-17T05:31:40;64.67;;;22.57;;
239;SDS011;104;53.590;10.004;2022-12-17T05:34:26;61.57;;;20.37;;
239;SDS011;104;53.590;10.004;2022-12-17T05:37:14;64.70;;;21.57;;
239;SDS011;104;53.590;10.004;2022-12-17T05:39:58;63.00;;;22.80;;
239;SDS011;104;53.590;10.004;2022-12-17T05:42:52;55.53;;;20.57;;
239;SDS011;104;53.590;10.004;2022-12-17T05:45:37;63.03;;;23.60;;
239;SDS011;104;53.590;10.004;2022-12-17T05:48:36;64.87;;;21.97;;
239;SDS011;104;53.590;10.004;2022-12-17T05:51:23;68.20;;;21.27;;
239;SDS011;104;53.590;10.004;2022-12-17T05:54:07;54.70;;;18.93;;
239;SDS011;104;53.590;10.004;2022-12-17T05:56:52;67.70;;;21.50;;
239;SDS011;104;53.590;10.004;2022-12-17T05:59:37;68.60;;;23.57;;
239;SDS011;104;53.590;10.004;2022-12-17T06:02:22;76.63;;;21.83;;
239;SDS011;104;53.590;10.004;2022-12-17T06:05:07;65.30;;;22.80;;
239;SDS011;104;53.590;10.004;2022-12-17T06:08:00;66.13;;;22.07;;
239;SDS011;104;53.590;10.004;2022-12-17T06:10:45;64.07;;;21.70;;
239;SDS011;104;53.590;10.004;2022-12-17T06:13:30;63.53;;;21.27;;
239;SDS011;104;53.590;10.004;2022-12-17T06:16:15;64.67;;;21.43;;
239;SDS011;104;53.590;10.004;2022-12-17T06:19:00;70.43;;;24.40;;
239;SDS011;104;53.590;10.004;2022-12-17T06:21:45;71.57;;;23.60;;
239;SDS011;104;53.590;10.004;2022-12-17T06:24:31;68.53;;;22.70;;
239;SDS011;104;53.590;10.004;2022-12-17T06:27:16;66.57;;;22.10;;
239;SDS011;104;53.590;10.004;2022-12-17T06:30:00;62.27;;;21.40;;
239;SDS011;104;53.590;10.004;2022-12-17T06:32:45;65.23;;;23.77;;
239;SDS011;104;53.590;10.004;2022-12-17T06:35:30;58.27;;;21.00;;
239;SDS011;104;53.590;10.004;2022-12-17T06:38:15;70.50;;;23.20;;
239;SDS011;104;53.590;10.004;2022-12-17T06:41:01;75.93;;;23.90;;
239;SDS011;104;53.590;10.004;2022-12-17T06:43:46;78.67;;;21.70;;
239;SDS011;104;53.590;10.004;2022-12-17T06:46:31;57.67;;;22.27;;
239;SDS011;104;53.590;10.004;2022-12-17T06:49:15;65.27;;;21.30;;
239;SDS011;104;53.590;10.004;2022-12-17T06:52:00;60.33;;;19.47;;
239;SDS011;104;53.590;10.004;2022-12-17T06:54:45;59.17;;;22.40;;
239;SDS011;104;53.590;10.004;2022-12-17T06:57:31;67.73;;;21.30;;
239;SDS011;104;53.590;10.004;2022-12-17T07:00:16;75.30;;;20.27;;
239;SDS011;104;53.590;10.004;2022-12-17T07:03:01;57.97;;;17.97;;
239;SDS011;104;53.590;10.004;2022-12-17T07:05:46;63.97;;;21.20;;
239;SDS011;104;53.590;10.004;2022-12-17T07:08:31;71.00;;;21.80;;
239;SDS011;104;53.590;10.004;2022-12-17T07:11:15;62.27;;;21.00;;
239;SDS011;104;53.590;10.004;2022-12-17T07:14:02;65.47;;;21.13;;
239;SDS011;104;53.590;10.004;2022-12-17T07:16:47;58.50;;;22.07;;
239;SDS011;104;53.590;10.004;2022-12-17T07:19:32;62.53;;;21.87;;
239;SDS011;104;53.590;10.004;2022-12-17T07:22:22;69.00;;;20.23;;
239;SDS011;104;53.590;10.004;2022-12-17T07:25:08;62.03;;;20.47;;
239;SDS011;104;53.590;10.004;2022-12-17T07:27:52;78.30;;;21.60;;
239;SDS011;104;53.590;10.004;2022-12-17T07:30:44;68.33;;;22.57;;
239;SDS011;104;53.590;10.004;2022-12-17T07:33:29;70.13;;;21.77;;
239;SDS011;104;53.590;10.004;2022-12-17T07:36:15;62.60;;;21.50;;
239;SDS011;104;53.590;10.004;2022-12-17T07:39:02;66.17;;;22.03;;
239;SDS011;104;53.590;10.004;2022-12-17T07:41:48;52.07;;;17.67;;
239;SDS011;104;53.590;10.004;2022-12-17T07:44:33;53.30;;;18.67;;
239;SDS011;104;53.590;10.004;2022-12-17T07:50:22;68.53;;;22.00;;
239;SDS011;104;53.590;10.004;2022-12-17T07:53:18;79.83;;;24.33;;
239;SDS011;104;53.590;10.004;2022-12-17T07:56:53;64.50;;;23.43;;
239;SDS011;104;53.590;10.004;2022-12-17T07:59:24;76.00;;;23.67;;
239;SDS011;104;53.590;10.004;2022-12-17T08:02:12;72.00;;;24.17;;
239;SDS011;104;53.590;10.004;2022-12-17T08:04:57;70.37;;;23.07;;
239;SDS011;104;53.590;10.004;2022-12-17T08:07:44;72.67;;;23.40;;
239;SDS011;104;53.590;10.004;2022-12-17T08:10:29;70.63;;;22.43;;
239;SDS011;104;53.590;10.004;2022-12-17T08:13:14;76.70;;;23.50;;
239;SDS011;104;53.590;10.004;2022-12-17T08:15:59;59.63;;;19.10;;
239;SDS011;104;53.590;10.004;2022-12-17T08:18:44;57.73;;;20.03;;
239;SDS011;104;53.590;10.004;2022-12-17T08:21:29;56.20;;;19.30;;
239;SDS011;104;53.590;10.004;2022-12-17T08:24:15;67.13;;;22.50;;
239;SDS011;104;53.590;10.004;2022-12-17T08:26:59;57.70;;;20.13;;
239;SDS011;104;53.590;10.004;2022-12-17T08:29:44;67.07;;;22.13;;
239;SDS011;104;53.590;10.004;2022-12-17T08:32:29;64.30;;;21.57;;
239;SDS011;104;53.590;10.004;2022-12-17T08:35:14;59.83;;;21.03;;
239;SDS011;104;53.590;10.004;2022-12-17T08:37:59;48.50;;;16.83;;
239;SDS011;104;53.590;10.004;2022-12-17T08:40:48;64.30;;;22.73;;
239;SDS011;104;53.590;10.004;2022-12-17T08:43:33;79.73;;;22.93;;
239;SDS011;104;53.590;10.004;2022-12-17T08:46:17;66.47;;;21.57;;
239;SDS011;104;53.590;10.004;2022-12-17T08:49:02;74.70;;;23.70;;
239;SDS011;104;53.590;10.004;2022-12-17T08:51:47;66.60;;;23.10;;
239;SDS011;104;53.590;10.004;2022-12-17T08:54:32;63.07;;;22.50;;
239;SDS011;104;53.590;10.004;2022-12-17T08:57:22;67.77;;;24.10;;
239;SDS011;104;53.590;10.004;2022-12-17T09:00:08;65.50;;;21.63;;
239;SDS011;104;53.590;10.004;2022-12-17T09:02:55;79.00;;;24.47;;
239;SDS011;104;53.590;10.004;2022-12-17T09:05:40;86.47;;;26.70;;
239;SDS011;104;53.590;10.004;2022-12-17T09:08:24;75.40;;;24.77;;
239;SDS011;104;53.590;10.004;2022-12-17T09:11:09;69.53;;;24.33;;
239;SDS011;104;53.590;10.004;2022-12-17T09:13:54;73.57;;;25.80;;
239;SDS011;104;53.590;10.004;2022-12-17T09:16:39;72.70;;;26.20;;
239;SDS011;104;53.590;10.004;2022-12-17T09:19:24;76.47;;;25.20;;
239;SDS011;104;53.590;10.004;2022-12-17T09:22:08;80.30;;;27.47;;
239;SDS011;104;53.590;10.004;2022-12-17T09:24:53;75.47;;;25.27;;
239;SDS011;104;53.590;10.004;2022-12-17T09:27:37;75.70;;;28.00;;
239;SDS011;104;53.590;10.004;2022-12-17T09:30:24;75.43;;;24.27;;
239;SDS011;104;53.590;10.004;2022-12-17T09:33:12;72.87;;;24.37;;
239;SDS011;104;53.590;10.004;2022-12-17T09:35:57;66.27;;;25.40;;
239;SDS011;104;53.590;10.004;2022-12-17T09:38:42;70.13;;;21.67;;
239;SDS011;104;53.590;10.004;2022-12-17T09:41:28;66.70;;;23.43;;
239;SDS011;104;53.590;10.004;2022-12-17T09:44:17;63.33;;;23.30;;
239;SDS011;104;53.590;10.004;2022-12-17T09:47:13;68.27;;;25.33;;
239;SDS011;104;53.590;10.004;2022-12-17T09:50:08;82.37;;;26.27;;
239;SDS011;104;53.590;10.004;2022-12-17T09:52:56;67.87;;;26.33;;
239;SDS011;104;53.590;10.004;2022-12-17T09:55:45;102.77;;;36.73;;
239;SDS011;104;53.590;10.004;2022-12-17T09:58:35;76.67;;;28.63;;
239;SDS011;104;53.590;10.004;2022-12-17T10:01:22;74.40;;;27.73;;
239;SDS011;104;53.590;10.004;2022-12-17T10:04:11;69.60;;;27.33;;
239;SDS011;104;53.590;10.004;2022-12-17T10:07:00;69.97;;;26.47;;
239;SDS011;104;53.590;10.004;2022-12-17T10:09:45;79.80;;;28.80;;
239;SDS011;104;53.590;10.004;2022-12-17T10:12:34;83.43;;;29.07;;
239;SDS011;104;53.590;10.004;2022-12-17T10:15:19;74.83;;;27.80;;
239;SDS011;104;53.590;10.004;2022-12-17T10:18:04;90.50;;;33.23;;
239;SDS011;104;53.590;10.004;2022-12-17T10:21:00;66.17;;;25.47;;
239;SDS011;104;53.590;10.004;2022-12-17T10:24:06;68.30;;;26.30;;
239;SDS011;104;53.590;10.004;2022-12-17T10:26:52;65.67;;;25.33;;
239;SDS011;104;53.590;10.004;2022-12-17T10:29:38;70.23;;;24.40;;
239;SDS011;104;53.590;10.004;2022-12-17T10:32:24;66.23;;;25.80;;
239;SDS011;104;53.590;10.004;2022-12-17T10:35:12;74.33;;;28.10;;
239;SDS011;104;53.590;10.004;2022-12-17T10:38:03;63.63;;;25.70;;
239;SDS011;104;53.590;10.004;2022-12-17T10:40:53;68.20;;;25.40;;
239;SDS011;104;53.590;10.004;2022-12-17T10:43:38;68.93;;;25.57;;
239;SDS011;104;53.590;10.004;2022-12-17T10:46:24;72.07;;;25.80;;
239;SDS011;104;53.590;10.004;2022-12-17T10:49:11;83.00;;;27.77;;
239;SDS011;104;53.590;10.004;2022-12-17T10:52:01;69.70;;;28.10;;
239;SDS011;104;53.590;10.004;2022-12-17T10:54:58;69.13;;;25.47;;
239;SDS011;104;53.590;10.004;2022-12-17T10:57:44;70.07;;;26.80;;
239;SDS011;104;53.590;10.004;2022-12-17T11:00:31;71.83;;;25.17;;
239;SDS011;104;53.590;10.004;2022-12-17T11:03:23;69.00;;;25.07;;
239;SDS011;104;53.590;10.004;2022-12-17T11:06:14;69.57;;;26.90;;
239;SDS011;104;53.590;10.004;2022-12-17T11:09:03;75.90;;;26.97;;
239;SDS011;104;53.590;10.004;2022-12-17T11:11:50;70.63;;;27.03;;
239;SDS011;104;53.590;10.004;2022-12-17T11:14:37;69.40;;;27.17;;
239;SDS011;104;53.590;10.004;2022-12-17T11:17:27;71.77;;;27.10;;
239;SDS011;104;53.590;10.004;2022-12-17T11:20:18;72.10;;;26.57;;
239;SDS011;104;53.590;10.004;2022-12-17T11:23:07;82.93;;;32.13;;
239;SDS011;104;53.590;10.004;2022-12-17T11:26:02;71.90;;;28.13;;
239;SDS011;104;53.590;10.004;2022-12-17T11:28:50;66.20;;;26.50;;
239;SDS011;104;53.590;10.004;2022-12-17T11:31:34;72.37;;;27.27;;
239;SDS011;104;53.590;10.004;2022-12-17T11:34:31;76.50;;;28.00;;
239;SDS011;104;53.590;10.004;2022-12-17T11:37:29;86.20;;;33.70;;
239;SDS011;104;53.590;10.004;2022-12-17T11:40:19;90.33;;;34.00;;
239;SDS011;104;53.590;10.004;2022-12-17T11:43:11;73.00;;;27.13;;
239;SDS011;104;53.590;10.004;2022-12-17T11:46:08;83.03;;;29.70;;
239;SDS011;104;53.590;10.004;2022-12-17T11:49:04;74.10;;;28.23;;
239;SDS011;104;53.590;10.004;2022-12-17T11:51:59;85.23;;;30.10;;
239;SDS011;104;53.590;10.004;2022-12-17T11:54:51;72.07;;;27.90;;
239;SDS011;104;53.590;10.004;2022-12-17T11:57:45;72.90;;;26.30;;
239;SDS011;104;53.590;10.004;2022-12-17T12:00:35;77.23;;;26.10;;
239;SDS011;104;53.590;10.004;2022-12-17T12:03:29;72.10;;;25.40;;
239;SDS011;104;53.590;10.004;2022-12-17T12:06:25;76.47;;;28.37;;
239;SDS011;104;53.590;10.004;2022-12-17T12:09:15;69.70;;;26.87;;
239;SDS011;104;53.590;10.004;2022-12-17T12:12:05;75.60;;;26.30;;
239;SDS011;104;53.590;10.004;2022-12-17T12:15:05;58.63;;;24.07;;
239;SDS011;104;53.590;10.004;2022-12-17T12:18:02;66.20;;;24.90;;
239;SDS011;104;53.590;10.004;2022-12-17T12:21:02;63.40;;;23.90;;
239;SDS011;104;53.590;10.004;2022-12-17T12:23:52;58.33;;;24.13;;
239;SDS011;104;53.590;10.004;2022-12-17T12:26:51;64.63;;;23.33;;
239;SDS011;104;53.590;10.004;2022-12-17T12:29:47;53.10;;;22.60;;
239;SDS011;104;53.590;10.004;2022-12-17T12:32:43;59.80;;;23.40;;
239;SDS011;104;53.590;10.004;2022-12-17T12:35:30;57.87;;;22.63;;
239;SDS011;104;53.590;10.004;2022-12-17T12:38:26;64.90;;;25.20;;
239;SDS011;104;53.590;10.004;2022-12-17T12:41:13;64.70;;;27.17;;
239;SDS011;104;53.590;10.004;2022-12-17T12:44:04;67.63;;;26.23;;
239;SDS011;104;53.590;10.004;2022-12-17T12:46:52;63.40;;;23.93;;
239;SDS011;104;53.590;10.004;2022-12-17T12:49:40;59.27;;;24.17;;
239;SDS011;104;53.590;10.004;2022-12-17T12:52:27;57.97;;;23.60;;
239;SDS011;104;53.590;10.004;2022-12-17T12:55:22;63.13;;;22.87;;
239;SDS011;104;53.590;10.004;2022-12-17T12:58:23;68.57;;;24.90;;
239;SDS011;104;53.590;10.004;2022-12-17T13:01:14;60.97;;;23.30;;
239;SDS011;104;53.590;10.004;2022-12-17T13:03:59;51.30;;;21.90;;
239;SDS011;104;53.590;10.004;2022-12-17T13:06:46;61.57;;;23.23;;
239;SDS011;104;53.590;10.004;2022-12-17T13:09:19;56.83;;;22.57;;
239;SDS011;104;53.590;10.004;2022-12-17T13:14:58;65.83;;;23.10;;
239;SDS011;104;53.590;10.004;2022-12-17T13:17:34;63.07;;;23.60;;
239;SDS011;104;53.590;10.004;2022-12-17T13:20:21;55.60;;;22.97;;
239;SDS011;104;53.590;10.004;2022-12-17T13:22:50;51.70;;;22.40;;
239;SDS011;104;53.590;10.004;2022-12-17T13:25:21;59.63;;;22.90;;
239;SDS011;104;53.590;10.004;2022-12-17T13:27:50;73.30;;;24.33;;
239;SDS011;104;53.590;10.004;2022-12-17T13:30:28;54.20;;;21.70;;
239;SDS011;104;53.590;10.004;2022-12-17T13:33:11;56.70;;;23.20;;
239;SDS011;104;53.590;10.004;2022-12-17T13:35:57;53.33;;;22.13;;
239;SDS011;104;53.590;10.004;2022-12-17T13:38:30;55.33;;;21.77;;
239;SDS011;104;53.590;10.004;2022-12-17T13:41:03;53.50;;;22.03;;
239;SDS011;104;53.590;10.004;2022-12-17T13:43:56;55.37;;;22.40;;
239;SDS011;104;53.590;10.004;2022-12-17T13:46:42;52.20;;;22.03;;
239;SDS011;104;53.590;10.004;2022-12-17T13:49:14;54.00;;;20.47;;
239;SDS011;104;53.590;10.004;2022-12-17T13:51:46;58.27;;;21.87;;
239;SDS011;104;53.590;10.004;2022-12-17T13:54:15;53.43;;;21.43;;
239;SDS011;104;53.590;10.004;2022-12-17T13:56:43;47.20;;;20.57;;
239;SDS011;104;53.590;10.004;2022-12-17T13:59:15;48.90;;;20.17;;
239;SDS011;104;53.590;10.004;2022-12-17T14:01:51;57.60;;;22.97;;
239;SDS011;104;53.590;10.004;2022-12-17T14:04:23;57.17;;;22.50;;
239;SDS011;104;53.590;10.004;2022-12-17T14:06:51;56.33;;;22.40;;
239;SDS011;104;53.590;10.004;2022-12-17T14:09:20;53.60;;;21.67;;
239;SDS011;104;53.590;10.004;2022-12-17T14:11:48;52.47;;;22.03;;
239;SDS011;104;53.590;10.004;2022-12-17T14:14:35;61.20;;;22.70;;
239;SDS011;104;53.590;10.004;2022-12-17T14:17:14;62.07;;;21.03;;
239;SDS011;104;53.590;10.004;2022-12-17T14:19:42;57.47;;;21.67;;
239;SDS011;104;53.590;10.004;2022-12-17T14:22:12;55.97;;;21.33;;
239;SDS011;104;53.590;10.004;2022-12-17T14:24:42;61.10;;;21.17;;
239;SDS011;104;53.590;10.004;2022-12-17T14:27:34;48.90;;;20.30;;
239;SDS011;104;53.590;10.004;2022-12-17T14:32:57;56.87;;;20.37;;
239;SDS011;104;53.590;10.004;2022-12-17T14:35:26;55.30;;;22.03;;
239;SDS011;104;53.590;10.004;2022-12-17T14:37:53;60.27;;;22.90;;
239;SDS011;104;53.590;10.004;2022-12-17T14:40:21;66.13;;;22.87;;
239;SDS011;104;53.590;10.004;2022-12-17T14:42:50;57.87;;;22.63;;
239;SDS011;104;53.590;10.004;2022-12-17T14:45:22;55.17;;;21.00;;
239;SDS011;104;53.590;10.004;2022-12-17T14:47:54;70.00;;;23.50;;
239;SDS011;104;53.590;10.004;2022-12-17T14:50:28;65.43;;;21.83;;
239;SDS011;104;53.590;10.004;2022-12-17T14:52:56;60.40;;;22.60;;
239;SDS011;104;53.590;10.004;2022-12-17T14:55:28;60.60;;;23.17;;
239;SDS011;104;53.590;10.004;2022-12-17T15:00:49;67.93;;;24.17;;
239;SDS011;104;53.590;10.004;2022-12-17T15:03:19;66.90;;;24.53;;
239;SDS011;104;53.590;10.004;2022-12-17T15:05:51;58.00;;;23.83;;
239;SDS011;104;53.590;10.004;2022-12-17T15:08:22;60.07;;;23.30;;
239;SDS011;104;53.590;10.004;2022-12-17T15:10:49;69.27;;;25.07;;
239;SDS011;104;53.590;10.004;2022-12-17T15:13:16;60.83;;;23.33;;
239;SDS011;104;53.590;10.004;2022-12-17T15:15:44;63.03;;;24.80;;
239;SDS011;104;53.590;10.004;2022-12-17T15:18:12;60.13;;;23.70;;
239;SDS011;104;53.590;10.004;2022-12-17T15:20:39;77.70;;;26.50;;
239;SDS011;104;53.590;10.004;2022-12-17T15:23:10;70.10;;;25.50;;
239;SDS011;104;53.590;10.004;2022-12-17T15:25:41;64.67;;;25.23;;
239;SDS011;104;53.590;10.004;2022-12-17T15:28:09;62.47;;;25.83;;
239;SDS011;104;53.590;10.004;2022-12-17T15:30:37;74.73;;;26.50;;
239;SDS011;104;53.590;10.004;2022-12-17T15:33:05;71.67;;;26.23;;
239;SDS011;104;53.590;10.004;2022-12-17T15:35:32;83.93;;;27.40;;
239;SDS011;104;53.590;10.004;2022-12-17T15:38:00;74.43;;;28.27;;
239;SDS011;104;53.590;10.004;2022-12-17T15:40:28;72.47;;;27.57;;
239;SDS011;104;53.590;10.004;2022-12-17T15:42:55;88.13;;;29.87;;
239;SDS011;104;53.590;10.004;2022-12-17T15:45:37;76.20;;;26.50;;
239;SDS011;104;53.590;10.004;2022-12-17T15:48:05;69.67;;;27.27;;
239;SDS011;104;53.590;10.004;2022-12-17T15:50:32;76.57;;;28.13;;
239;SDS011;104;53.590;10.004;2022-12-17T15:53:00;75.20;;;28.43;;
239;SDS011;104;53.590;10.004;2022-12-17T15:55:28;82.37;;;28.07;;
239;SDS011;104;53.590;10.004;2022-12-17T15:57:56;76.40;;;27.87;;
239;SDS011;104;53.590;10.004;2022-12-17T16:00:23;71.07;;;28.20;;
239;SDS011;104;53.590;10.004;2022-12-17T16:02:50;67.23;;;26.00;;
239;SDS011;104;53.590;10.004;2022-12-17T16:05:18;68.97;;;26.50;;
239;SDS011;104;53.590;10.004;2022-12-17T16:07:46;81.13;;;28.47;;
239;SDS011;104;53.590;10.004;2022-12-17T16:10:14;77.50;;;28.87;;
239;SDS011;104;53.590;10.004;2022-12-17T16:12:43;78.73;;;29.30;;
239;SDS011;104;53.590;10.004;2022-12-17T16:15:10;77.83;;;29.97;;
239;SDS011;104;53.590;10.004;2022-12-17T16:17:37;86.03;;;31.23;;
239;SDS011;104;53.590;10.004;2022-12-17T16:20:05;86.60;;;31.30;;
239;SDS011;104;53.590;10.004;2022-12-17T16:22:33;82.90;;;30.13;;
239;SDS011;104;53.590;10.004;2022-12-17T16:25:00;72.83;;;29.07;;
239;SDS011;104;53.590;10.004;2022-12-17T16:27:43;78.33;;;30.63;;
239;SDS011;104;53.590;10.004;2022-12-17T16:30:11;91.13;;;32.57;;
239;SDS011;104;53.590;10.004;2022-12-17T16:32:40;112.60;;;37.40;;
239;SDS011;104;53.590;10.004;2022-12-17T16:35:21;95.00;;;35.30;;
239;SDS011;104;53.590;10.004;2022-12-17T16:37:49;115.43;;;37.80;;
239;SDS011;104;53.590;10.004;2022-12-17T16:40:17;109.40;;;38.90;;
239;SDS011;104;53.590;10.004;2022-12-17T16:45:53;117.50;;;37.67;;
239;SDS011;104;53.590;10.004;2022-12-17T16:48:21;112.30;;;37.07;;
239;SDS011;104;53.590;10.004;2022-12-17T16:50:53;106.13;;;33.93;;
239;SDS011;104;53.590;10.004;2022-12-17T16:53:30;100.73;;;36.90;;
239;SDS011;104;53.590;10.004;2022-12-17T16:56:13;89.23;;;32.90;;
239;SDS011;104;53.590;10.004;2022-12-17T16:58:41;100.10;;;35.73;;
239;SDS011;104;53.590;10.004;2022-12-17T17:01:14;105.93;;;35.67;;
239;SDS011;104;53.590;10.004;2022-12-17T17:03:48;98.57;;;34.70;;
239;SDS011;104;53.590;10.004;2022-12-17T17:06:26;97.43;;;35.70;;
239;SDS011;104;53.590;10.004;2022-12-17T17:08:56;102.17;;;37.37;;